Wetterdaten: Woche 17.01.11 - 23.01.11 (KW3)
Datum Zeit Temp. A. Feuchte A. Luftdruck Regen Wind Richtung Taupunkt Windchill Windben
17.01.2011 00:00 0,3 C 85 % 1027,4 hPa 0,0 l/m 0,0 km/h N -2,0 C 0,3 C 0,0 km/h
17.01.2011 01:00 -0,3 C 85 % 1027,5 hPa 0,0 l/m 0,0 km/h N -2,5 C -0,3 C 0,4 km/h
17.01.2011 02:00 -0,6 C 85 % 1027,8 hPa 0,0 l/m 0,0 km/h N -2,8 C -0,6 C 0,0 km/h
17.01.2011 03:00 -0,6 C 85 % 1027,6 hPa 0,0 l/m 0,0 km/h N -2,8 C -0,6 C 0,0 km/h
17.01.2011 04:00 -0,6 C 85 % 1027,6 hPa 0,0 l/m 0,0 km/h N -2,8 C -0,6 C 0,4 km/h
17.01.2011 05:00 -1,1 C 85 % 1027,7 hPa 0,0 l/m 0,0 km/h N -3,3 C -1,1 C 0,0 km/h
17.01.2011 06:00 -1,6 C 85 % 1027,8 hPa 0,0 l/m 0,0 km/h N -3,8 C -1,6 C 0,0 km/h
17.01.2011 07:00 -1,6 C 85 % 1028,0 hPa 0,0 l/m 0,0 km/h N -3,7 C -1,6 C 0,4 km/h
17.01.2011 08:00 -1,4 C 85 % 1028,2 hPa 0,0 l/m 0,0 km/h N -3,6 C -1,4 C 0,0 km/h
17.01.2011 09:00 -0,1 C 85 % 1027,8 hPa 0,0 l/m 0,0 km/h N -2,4 C -0,1 C 0,4 km/h
17.01.2011 10:00 1,9 C 85 % 1027,8 hPa 0,0 l/m 1,1 km/h O-SO -0,4 C 1,9 C 3,6 km/h
17.01.2011 11:00 3,0 C 85 % 1027,6 hPa 0,0 l/m 1,3 km/h O 0,7 C 3,0 C 4,0 km/h
17.01.2011 12:00 3,1 C 85 % 1027,4 hPa 0,0 l/m 3,2 km/h O 0,8 C 3,1 C 6,4 km/h
17.01.2011 13:00 3,3 C 85 % 1026,8 hPa 0,0 l/m 1,3 km/h O 1,0 C 3,3 C 4,4 km/h
17.01.2011 14:00 3,4 C 84 % 1026,5 hPa 0,0 l/m 0,8 km/h N 1,0 C 3,4 C 4,0 km/h
17.01.2011 15:00 3,0 C 84 % 1026,1 hPa 0,0 l/m 0,3 km/h N 0,6 C 3,0 C 2,4 km/h
17.01.2011 16:00 3,0 C 84 % 1026,1 hPa 0,0 l/m 0,0 km/h N 0,6 C 3,0 C 0,0 km/h
17.01.2011 17:00 3,2 C 84 % 1026,1 hPa 0,0 l/m 0,1 km/h N 0,7 C 3,2 C 2,0 km/h
17.01.2011 18:00 3,1 C 84 % 1026,2 hPa 0,0 l/m 0,1 km/h N 0,7 C 3,1 C 2,4 km/h
17.01.2011 19:00 2,7 C 84 % 1026,3 hPa 0,0 l/m 0,1 km/h N 0,3 C 2,7 C 2,0 km/h
17.01.2011 20:00 2,5 C 84 % 1026,4 hPa 0,0 l/m 0,0 km/h N -0,0 C 2,5 C 0,8 km/h
17.01.2011 21:00 2,2 C 84 % 1026,3 hPa 0,0 l/m 0,1 km/h N -0,3 C 2,2 C 2,4 km/h
17.01.2011 22:00 1,7 C 84 % 1026,3 hPa 0,0 l/m 0,1 km/h N -0,7 C 1,7 C 2,0 km/h
17.01.2011 23:00 1,6 C 84 % 1026,3 hPa 0,0 l/m 0,3 km/h N -0,9 C 1,6 C 2,4 km/h
18.01.2011 00:00 1,7 C 83 % 1026,4 hPa 0,0 l/m 0,0 km/h N -0,9 C 1,7 C 0,8 km/h
18.01.2011 01:00 1,6 C 83 % 1026,4 hPa 0,0 l/m 0,1 km/h N -1,0 C 1,6 C 2,0 km/h
18.01.2011 02:00 1,4 C 83 % 1026,6 hPa 0,0 l/m 0,1 km/h N -1,2 C 1,4 C 2,0 km/h
18.01.2011 03:00 1,3 C 83 % 1026,6 hPa 0,0 l/m 0,1 km/h N -1,2 C 1,3 C 2,0 km/h
18.01.2011 04:00 0,9 C 83 % 1026,5 hPa 0,0 l/m 0,0 km/h N -1,6 C 0,9 C 1,6 km/h
18.01.2011 05:00 0,6 C 83 % 1026,3 hPa 0,0 l/m 0,1 km/h N -2,0 C 0,6 C 2,0 km/h
18.01.2011 06:00 0,2 C 83 % 1026,5 hPa 0,3 l/m 0,1 km/h N -2,4 C 0,2 C 2,4 km/h
18.01.2011 07:00 -0,0 C 83 % 1026,7 hPa 0,0 l/m 0,2 km/h N -2,6 C -0,0 C 3,2 km/h
18.01.2011 08:00 -0,2 C 83 % 1026,8 hPa 0,0 l/m 0,2 km/h N -2,7 C -0,2 C 2,4 km/h
18.01.2011 09:00 -0,1 C 83 % 1026,8 hPa 0,0 l/m 0,1 km/h N -2,6 C -0,1 C 2,4 km/h
18.01.2011 10:00 0,3 C 83 % 1027,0 hPa 0,0 l/m 0,4 km/h N -2,3 C 0,3 C 3,2 km/h
18.01.2011 11:00 1,0 C 82 % 1026,7 hPa 0,0 l/m 1,2 km/h O-SO -1,6 C 1,0 C 4,8 km/h
18.01.2011 12:00 1,9 C 82 % 1026,2 hPa 0,0 l/m 1,2 km/h O-SO -0,8 C 1,9 C 4,0 km/h
18.01.2011 13:00 3,1 C 82 % 1025,8 hPa 0,0 l/m 1,4 km/h O-SO 0,2 C 3,1 C 4,4 km/h
18.01.2011 14:00 3,8 C 82 % 1025,6 hPa 0,0 l/m 0,8 km/h N 1,0 C 3,8 C 4,0 km/h
18.01.2011 15:00 4,7 C 82 % 1025,5 hPa 0,0 l/m 0,2 km/h N 1,8 C 4,7 C 1,6 km/h
18.01.2011 16:00 4,5 C 83 % 1025,4 hPa 0,0 l/m 0,0 km/h N 1,9 C 4,5 C 0,0 km/h
18.01.2011 17:00 2,5 C 84 % 1025,7 hPa 0,0 l/m 0,0 km/h N 0,1 C 2,5 C 0,0 km/h
18.01.2011 18:00 1,4 C 84 % 1025,9 hPa 0,0 l/m 0,0 km/h N -1,0 C 1,4 C 0,0 km/h
18.01.2011 19:00 1,5 C 84 % 1025,5 hPa 0,0 l/m 0,0 km/h N -0,9 C 1,5 C 0,8 km/h
18.01.2011 20:00 1,9 C 83 % 1024,9 hPa 0,0 l/m 0,5 km/h NW -0,6 C 1,9 C 3,2 km/h
18.01.2011 21:00 2,4 C 84 % 1024,8 hPa 0,0 l/m 0,2 km/h N -0,1 C 2,4 C 2,0 km/h
18.01.2011 22:00 2,0 C 84 % 1024,7 hPa 0,0 l/m 0,0 km/h N -0,5 C 2,0 C 0,0 km/h
18.01.2011 23:00 2,1 C 83 % 1024,3 hPa 0,0 l/m 0,0 km/h N -0,4 C 2,1 C 0,0 km/h
19.01.2011 00:00 3,0 C 83 % 1024,4 hPa 0,8 l/m 0,0 km/h N 0,4 C 3,0 C 0,4 km/h
19.01.2011 01:00 3,6 C 83 % 1024,3 hPa 1,0 l/m 0,0 km/h N 1,0 C 3,6 C 0,0 km/h
19.01.2011 02:00 3,7 C 83 % 1024,1 hPa 0,0 l/m 0,1 km/h N 1,1 C 3,7 C 0,4 km/h
19.01.2011 03:00 3,3 C 83 % 1023,9 hPa 0,3 l/m 0,0 km/h N 0,7 C 3,3 C 0,8 km/h
19.01.2011 04:00 3,1 C 83 % 1023,5 hPa 0,0 l/m 0,0 km/h N 0,5 C 3,1 C 0,4 km/h
19.01.2011 05:00 2,8 C 83 % 1023,5 hPa 0,0 l/m 0,0 km/h N 0,2 C 2,8 C 0,4 km/h
19.01.2011 06:00 2,8 C 83 % 1023,3 hPa 0,0 l/m 0,0 km/h N 0,2 C 2,8 C 0,8 km/h
19.01.2011 07:00 2,5 C 83 % 1023,0 hPa 0,0 l/m 0,0 km/h N -0,1 C 2,5 C 0,8 km/h
19.01.2011 08:00 3,3 C 82 % 1023,1 hPa 0,0 l/m 0,8 km/h W 0,5 C 3,3 C 6,5 km/h
19.01.2011 09:00 5,9 C 82 % 1022,8 hPa 0,3 l/m 2,4 km/h W 3,0 C 5,9 C 12,9 km/h
19.01.2011 10:00 7,1 C 84 % 1022,7 hPa 0,0 l/m 5,4 km/h W-NW 4,6 C 7,1 C 17,2 km/h
19.01.2011 11:00 7,9 C 78 % 1022,1 hPa 0,0 l/m 6,3 km/h W-SW 4,2 C 7,8 C 21,3 km/h
19.01.2011 12:00 8,3 C 73 % 1021,5 hPa 0,0 l/m 5,5 km/h NW 3,7 C 8,3 C 18,1 km/h
19.01.2011 13:00 8,2 C 70 % 1021,1 hPa 0,0 l/m 8,3 km/h NW 3,1 C 6,8 C 22,9 km/h
19.01.2011 14:00 7,5 C 73 % 1020,8 hPa 0,0 l/m 8,4 km/h W 2,9 C 6,0 C 23,7 km/h
19.01.2011 15:00 6,3 C 79 % 1021,3 hPa 0,5 l/m 9,0 km/h W-SW 2,9 C 4,2 C 24,1 km/h
19.01.2011 16:00 4,1 C 83 % 1022,5 hPa 0,3 l/m 9,8 km/h W-NW 1,5 C 1,3 C 21,7 km/h
19.01.2011 17:00 3,2 C 85 % 1023,2 hPa 0,3 l/m 6,8 km/h N-NW 0,8 C 2,8 C 17,7 km/h
19.01.2011 18:00 2,8 C 85 % 1023,3 hPa 0,0 l/m 8,4 km/h NW 0,4 C 0,9 C 18,1 km/h
19.01.2011 19:00 2,7 C 82 % 1023,5 hPa 0,0 l/m 6,7 km/h NW -0,0 C 2,3 C 16,5 km/h
19.01.2011 20:00 2,8 C 80 % 1023,5 hPa 0,0 l/m 6,8 km/h NW -0,3 C 2,3 C 17,3 km/h
19.01.2011 21:00 2,9 C 79 % 1023,7 hPa 0,0 l/m 6,9 km/h NW -0,5 C 2,3 C 17,7 km/h
19.01.2011 22:00 2,8 C 78 % 1023,6 hPa 0,0 l/m 7,9 km/h NW -0,7 C 1,3 C 17,7 km/h
19.01.2011 23:00 2,7 C 77 % 1023,4 hPa 0,0 l/m 7,4 km/h NW -0,9 C 1,8 C 18,5 km/h
20.01.2011 00:00 2,5 C 77 % 1023,1 hPa 0,0 l/m 7,7 km/h NW -1,2 C 1,2 C 18,9 km/h
20.01.2011 01:00 2,1 C 77 % 1023,0 hPa 0,0 l/m 6,8 km/h NW -1,5 C 1,8 C 15,3 km/h
20.01.2011 02:00 2,0 C 76 % 1023,1 hPa 0,0 l/m 6,7 km/h W-NW -1,8 C 1,5 C 16,9 km/h
20.01.2011 03:00 2,0 C 76 % 1023,0 hPa 0,0 l/m 6,8 km/h NW -1,8 C 1,6 C 16,5 km/h
20.01.2011 04:00 2,0 C 76 % 1022,9 hPa 0,0 l/m 6,8 km/h NW -1,8 C 1,6 C 16,5 km/h
20.01.2011 05:00 1,7 C 75 % 1022,8 hPa 0,0 l/m 7,3 km/h NW -2,2 C 0,7 C 19,3 km/h
20.01.2011 06:00 1,5 C 77 % 1022,8 hPa 0,0 l/m 5,1 km/h NW -2,2 C 1,5 C 12,9 km/h
20.01.2011 07:00 1,2 C 77 % 1023,1 hPa 0,0 l/m 4,6 km/h NW -2,4 C 1,2 C 12,1 km/h
20.01.2011 08:00 1,1 C 78 % 1023,5 hPa 0,0 l/m 5,3 km/h W-NW -2,3 C 1,1 C 15,7 km/h
20.01.2011 09:00 1,5 C 77 % 1023,6 hPa 0,0 l/m 5,3 km/h N-NW -2,1 C 1,5 C 13,3 km/h
20.01.2011 10:00 2,3 C 73 % 1023,8 hPa 0,0 l/m 6,9 km/h NW -2,1 C 1,7 C 16,9 km/h
20.01.2011 11:00 3,1 C 69 % 1023,5 hPa 0,0 l/m 9,0 km/h NW -2,1 C 0,7 C 21,3 km/h
20.01.2011 12:00 3,5 C 65 % 1023,2 hPa 0,0 l/m 10,0 km/h W -2,5 C 0,4 C 22,9 km/h
20.01.2011 13:00 3,3 C 67 % 1023,1 hPa 0,0 l/m 7,8 km/h N-NO -2,3 C 2,1 C 18,5 km/h
20.01.2011 14:00 3,2 C 66 % 1022,9 hPa 0,0 l/m 8,2 km/h NW -2,6 C 1,6 C 17,7 km/h
20.01.2011 15:00 2,8 C 68 % 1023,1 hPa 0,0 l/m 4,8 km/h N-NW -2,6 C 2,5 C 11,7 km/h
20.01.2011 16:00 2,5 C 68 % 1023,5 hPa 0,0 l/m 4,1 km/h NW -2,8 C 2,5 C 9,6 km/h
20.01.2011 17:00 2,2 C 70 % 1023,9 hPa 0,0 l/m 2,9 km/h NW -2,6 C 2,2 C 7,6 km/h
20.01.2011 18:00 2,0 C 73 % 1024,4 hPa 0,0 l/m 2,9 km/h NW -2,4 C 2,0 C 7,6 km/h
20.01.2011 19:00 1,3 C 75 % 1024,8 hPa 0,0 l/m 2,2 km/h NW -2,6 C 1,3 C 6,4 km/h
20.01.2011 20:00 0,7 C 77 % 1025,1 hPa 0,0 l/m 1,6 km/h N-NW -2,9 C 0,7 C 4,8 km/h
20.01.2011 21:00 0,4 C 79 % 1025,6 hPa 0,0 l/m 3,0 km/h NW -2,8 C 0,4 C 8,1 km/h
20.01.2011 22:00 0,7 C 79 % 1025,9 hPa 0,0 l/m 3,6 km/h N-NW -2,5 C 0,7 C 7,6 km/h
20.01.2011 23:00 0,5 C 79 % 1026,3 hPa 0,0 l/m 3,2 km/h N-NW -2,7 C 0,5 C 8,5 km/h
21.01.2011 00:00 0,2 C 79 % 1026,7 hPa 0,0 l/m 2,9 km/h N-NW -3,0 C 0,2 C 6,8 km/h
21.01.2011 01:00 -0,5 C 80 % 1026,9 hPa 0,0 l/m 0,6 km/h N -3,4 C -0,5 C 3,2 km/h
21.01.2011 02:00 -0,5 C 82 % 1027,3 hPa 0,0 l/m 1,2 km/h N-NW -3,2 C -0,5 C 4,8 km/h
21.01.2011 03:00 -0,3 C 81 % 1027,3 hPa 0,0 l/m 2,2 km/h N-NW -3,1 C -0,3 C 6,4 km/h
21.01.2011 04:00 -0,1 C 81 % 1027,4 hPa 0,0 l/m 3,4 km/h N-NW -3,0 C -0,1 C 8,8 km/h
21.01.2011 05:00 -0,0 C 80 % 1027,6 hPa 0,0 l/m 4,6 km/h NW -3,0 C -0,0 C 11,3 km/h
21.01.2011 06:00 -0,2 C 80 % 1028,1 hPa 0,0 l/m 5,4 km/h NW -3,3 C -0,2 C 12,5 km/h
21.01.2011 07:00 -0,2 C 79 % 1028,5 hPa 0,0 l/m 3,9 km/h N-NW -3,4 C -0,2 C 8,9 km/h
21.01.2011 08:00 -0,1 C 77 % 1028,8 hPa 0,0 l/m 5,3 km/h N-NW -3,6 C -0,1 C 11,7 km/h
21.01.2011 09:00 0,1 C 76 % 1029,1 hPa 0,0 l/m 6,3 km/h NW -3,6 C -0,3 C 15,3 km/h
21.01.2011 10:00 0,6 C 74 % 1029,4 hPa 0,0 l/m 6,0 km/h N-NW -3,6 C 0,5 C 14,1 km/h
21.01.2011 11:00 1,4 C 68 % 1029,2 hPa 0,0 l/m 7,3 km/h N-NO -3,9 C 0,4 C 18,5 km/h
21.01.2011 12:00 1,4 C 64 % 1029,1 hPa 0,0 l/m 9,0 km/h N-NO -4,6 C -1,0 C 21,7 km/h
21.01.2011 13:00 1,0 C 69 % 1029,1 hPa 0,0 l/m 6,6 km/h N-NW -4,1 C 0,8 C 18,5 km/h
21.01.2011 14:00 0,6 C 72 % 1028,7 hPa 0,0 l/m 7,7 km/h N-NO -3,8 C -0,7 C 18,9 km/h
21.01.2011 15:00 0,6 C 71 % 1028,5 hPa 0,0 l/m 8,3 km/h N -4,1 C -1,3 C 22,9 km/h
21.01.2011 16:00 0,4 C 69 % 1028,8 hPa 0,0 l/m 7,7 km/h NW -4,6 C -0,9 C 20,9 km/h
21.01.2011 17:00 0,2 C 69 % 1029,2 hPa 0,0 l/m 6,4 km/h N-NW -4,9 C -0,1 C 19,7 km/h
21.01.2011 18:00 -0,0 C 69 % 1029,5 hPa 0,0 l/m 8,3 km/h N-NW -5,1 C -1,9 C 20,1 km/h
21.01.2011 19:00 -0,2 C 67 % 1029,5 hPa 0,0 l/m 8,2 km/h N-NW -5,5 C -2,0 C 19,3 km/h
21.01.2011 20:00 -0,3 C 67 % 1029,9 hPa 0,0 l/m 6,9 km/h NW -5,8 C -0,8 C 16,1 km/h
21.01.2011 21:00 -0,5 C 67 % 1030,3 hPa 0,0 l/m 6,8 km/h NW -5,9 C -0,9 C 17,3 km/h
21.01.2011 22:00 -0,7 C 67 % 1030,7 hPa 0,0 l/m 6,5 km/h N-NW -6,0 C -1,0 C 16,5 km/h
21.01.2011 23:00 -0,8 C 68 % 1030,6 hPa 0,0 l/m 6,1 km/h NW -5,9 C -0,8 C 14,9 km/h
22.01.2011 00:00 -0,9 C 68 % 1030,4 hPa 0,0 l/m 5,8 km/h NW -6,0 C -1,1 C 13,7 km/h
22.01.2011 01:00 -1,0 C 69 % 1030,2 hPa 0,0 l/m 6,7 km/h N-NW -6,0 C -1,3 C 14,9 km/h
22.01.2011 02:00 -1,1 C 69 % 1030,3 hPa 0,0 l/m 6,8 km/h N-NW -6,0 C -1,7 C 16,9 km/h
22.01.2011 03:00 -1,2 C 69 % 1030,1 hPa 0,0 l/m 5,3 km/h N-NW -6,0 C -1,2 C 14,1 km/h
22.01.2011 04:00 -1,4 C 73 % 1030,0 hPa 0,0 l/m 5,8 km/h N-NW -5,7 C -1,5 C 14,1 km/h
22.01.2011 05:00 -1,6 C 73 % 1030,0 hPa 0,0 l/m 6,0 km/h N-NW -5,9 C -1,7 C 15,3 km/h
22.01.2011 06:00 -1,6 C 70 % 1030,0 hPa 0,0 l/m 6,8 km/h NW -6,4 C -2,2 C 15,7 km/h
22.01.2011 07:00 -1,9 C 71 % 1030,0 hPa 0,0 l/m 5,5 km/h NW -6,4 C -1,9 C 13,3 km/h
22.01.2011 08:00 -1,9 C 70 % 1030,0 hPa 0,0 l/m 5,1 km/h NW -6,7 C -1,9 C 15,7 km/h
22.01.2011 09:00 -1,6 C 69 % 1030,0 hPa 0,0 l/m 6,0 km/h NW -6,5 C -2,0 C 16,5 km/h
22.01.2011 10:00 -1,2 C 68 % 1030,0 hPa 0,0 l/m 7,9 km/h N-NW -6,5 C -2,8 C 19,3 km/h
22.01.2011 11:00 -0,9 C 66 % 1029,6 hPa 0,0 l/m 7,4 km/h NW -6,5 C -1,9 C 17,3 km/h
22.01.2011 12:00 -0,7 C 64 % 1029,3 hPa 0,0 l/m 8,6 km/h NW -6,7 C -3,0 C 19,7 km/h
22.01.2011 13:00 -0,4 C 62 % 1028,8 hPa 0,0 l/m 8,4 km/h N-NW -6,7 C -2,5 C 19,7 km/h
22.01.2011 14:00 -0,4 C 59 % 1028,5 hPa 0,0 l/m 7,9 km/h NW -7,3 C -1,9 C 19,7 km/h
22.01.2011 15:00 -0,5 C 60 % 1028,3 hPa 0,0 l/m 7,8 km/h N-NW -7,4 C -2,0 C 18,5 km/h
22.01.2011 16:00 -0,7 C 60 % 1027,9 hPa 0,0 l/m 7,4 km/h N-NW -7,5 C -1,8 C 17,3 km/h
22.01.2011 17:00 -0,7 C 60 % 1027,9 hPa 0,0 l/m 6,2 km/h NW -7,6 C -0,9 C 17,7 km/h
22.01.2011 18:00 -0,8 C 60 % 1028,0 hPa 0,0 l/m 5,3 km/h N-NW -7,5 C -0,8 C 15,3 km/h
22.01.2011 19:00 -0,9 C 59 % 1027,8 hPa 0,0 l/m 5,3 km/h N-NO -7,9 C -0,9 C 14,5 km/h
22.01.2011 20:00 -1,2 C 60 % 1027,4 hPa 0,0 l/m 5,3 km/h NW -8,0 C -1,2 C 14,5 km/h
22.01.2011 21:00 -1,6 C 60 % 1027,5 hPa 0,0 l/m 4,9 km/h NW -8,2 C -1,6 C 11,3 km/h
22.01.2011 22:00 -1,8 C 62 % 1027,3 hPa 0,0 l/m 6,6 km/h NW -8,1 C -2,4 C 17,7 km/h
22.01.2011 23:00 -2,3 C 64 % 1027,2 hPa 0,0 l/m 5,2 km/h N -8,1 C -2,5 C 12,5 km/h
23.01.2011 00:00 -2,7 C 65 % 1026,6 hPa 0,0 l/m 4,9 km/h NW -8,4 C -2,7 C 11,3 km/h
23.01.2011 01:00 -2,9 C 66 % 1025,9 hPa 0,0 l/m 4,8 km/h N-NW -8,4 C -2,9 C 13,3 km/h
23.01.2011 02:00 -3,1 C 66 % 1025,8 hPa 0,0 l/m 3,3 km/h N-NW -8,5 C -3,1 C 10,5 km/h
23.01.2011 03:00 -3,2 C 66 % 1025,1 hPa 0,0 l/m 4,5 km/h N-NW -8,6 C -3,2 C 11,7 km/h
23.01.2011 04:00 -3,3 C 66 % 1024,5 hPa 0,0 l/m 5,3 km/h NW -8,7 C -3,3 C 12,9 km/h
23.01.2011 05:00 -3,6 C 68 % 1024,2 hPa 0,0 l/m 5,4 km/h NW -8,7 C -3,6 C 14,9 km/h
23.01.2011 06:00 -3,7 C 69 % 1024,1 hPa 0,0 l/m 7,1 km/h N-NW -8,5 C -4,5 C 19,8 km/h
23.01.2011 07:00 -3,6 C 68 % 1024,1 hPa 0,0 l/m 6,5 km/h W -8,6 C -4,3 C 20,1 km/h
23.01.2011 08:00 -3,2 C 68 % 1023,7 hPa 0,0 l/m 6,7 km/h W-SW -8,3 C -4,0 C 23,3 km/h
23.01.2011 09:00 -2,3 C 65 % 1023,2 hPa 0,0 l/m 8,0 km/h W-NW -8,1 C -4,1 C 24,1 km/h
23.01.2011 10:00 -1,4 C 60 % 1023,0 hPa 0,0 l/m 13,6 km/h NW -8,2 C -7,7 C 32,2 km/h
23.01.2011 11:00 -0,7 C 57 % 1022,9 hPa 0,0 l/m 12,0 km/h W -8,1 C -5,8 C 34,2 km/h
23.01.2011 12:00 -0,2 C 56 % 1021,9 hPa 0,0 l/m 12,3 km/h W-NW -7,8 C -5,3 C 34,6 km/h
23.01.2011 13:00 0,4 C 57 % 1021,2 hPa 0,0 l/m 10,1 km/h W -7,2 C -3,1 C 28,2 km/h
23.01.2011 14:00 0,6 C 57 % 1021,0 hPa 0,0 l/m 10,2 km/h NW -7,0 C -2,8 C 27,7 km/h
23.01.2011 15:00 -0,1 C 59 % 1020,8 hPa 0,0 l/m 10,0 km/h NW -7,2 C -3,5 C 27,3 km/h
23.01.2011 16:00 -0,4 C 61 % 1020,5 hPa 0,0 l/m 10,0 km/h NW -7,0 C -3,8 C 24,9 km/h
23.01.2011 17:00 -0,6 C 63 % 1020,7 hPa 0,0 l/m 11,0 km/h W-NW -6,8 C -5,0 C 28,6 km/h
23.01.2011 18:00 -0,6 C 65 % 1020,9 hPa 0,0 l/m 9,9 km/h NW -6,5 C -4,0 C 30,1 km/h
23.01.2011 19:00 -0,9 C 71 % 1021,1 hPa 0,0 l/m 10,8 km/h NW -5,6 C -5,0 C 29,8 km/h
23.01.2011 20:00 -1,6 C 80 % 1021,1 hPa 0,0 l/m 9,9 km/h NW -4,6 C -5,1 C 22,1 km/h
23.01.2011 21:00 -1,8 C 83 % 1020,9 hPa 0,0 l/m 7,4 km/h NW -4,2 C -3,0 C 20,1 km/h
23.01.2011 22:00 -1,8 C 85 % 1020,7 hPa 0,0 l/m 6,2 km/h NW -4,1 C -2,3 C 15,7 km/h
23.01.2011 23:00 -1,7 C 84 % 1020,5 hPa 0,0 l/m 5,9 km/h W -4,0 C -1,7 C 19,3 km/h
Min-Datum _ 23.01.11 23.01.11 23.01.11 - 17.01.11 - 23.01.11 23.01.11 17.01.11
_ Min-Zeit 06:30 12:30 16:45 - 00:00 - 04:30 10:30 00:00
Minimum _ -3,8 C 55 % 1020,3 hPa - 0,0 km/h - -8,8 C -8,1 C 0,0 km/h
Max-Datum _ 19.01.11 17.01.11 21.01.11 19.01.11 23.01.11 - 19.01.11 19.01.11 23.01.11
_ Max-Zeit 12:45 00:15 22:30 01:45 10:30 - 10:30 12:45 12:30
Maximum _ 8,4 C 85 % 1030,8 hPa 1,0 l/m 14,3 km/h
NW
- 4,9 C 8,4 C 43,5 km/h
W
Durchschnitt _ 0,9 C 75 % 1025,8 hPa #3,6 l/m 4,4 km/h NW -3,0 C 0,3 C 11,8 km/h